sensor_id;sensor_type;location;lat;lon;timestamp;temperature;humidity
21559;DHT22;10940;48.890;8.240;2022-07-23T00:02:06;25.20;99.90
21559;DHT22;10940;48.890;8.240;2022-07-23T00:04:32;25.20;99.90
21559;DHT22;10940;48.890;8.240;2022-07-23T00:06:58;25.20;99.90
21559;DHT22;10940;48.890;8.240;2022-07-23T00:09:24;25.20;99.90
21559;DHT22;10940;48.890;8.240;2022-07-23T00:11:49;25.10;99.90
21559;DHT22;10940;48.890;8.240;2022-07-23T00:14:15;25.20;99.90
21559;DHT22;10940;48.890;8.240;2022-07-23T00:16:40;25.10;99.90
21559;DHT22;10940;48.890;8.240;2022-07-23T00:19:06;25.10;99.90
21559;DHT22;10940;48.890;8.240;2022-07-23T00:21:31;25.10;99.90
21559;DHT22;10940;48.890;8.240;2022-07-23T00:23:57;25.00;99.90
21559;DHT22;10940;48.890;8.240;2022-07-23T00:26:22;25.00;99.90
21559;DHT22;10940;48.890;8.240;2022-07-23T00:28:48;25.00;99.90
21559;DHT22;10940;48.890;8.240;2022-07-23T00:31:14;24.90;99.90
21559;DHT22;10940;48.890;8.240;2022-07-23T00:33:39;24.90;99.90
21559;DHT22;10940;48.890;8.240;2022-07-23T00:36:05;24.90;99.90
21559;DHT22;10940;48.890;8.240;2022-07-23T00:38:30;24.80;99.90
21559;DHT22;10940;48.890;8.240;2022-07-23T00:40:56;24.80;99.90
21559;DHT22;10940;48.890;8.240;2022-07-23T00:43:22;24.70;99.90
21559;DHT22;10940;48.890;8.240;2022-07-23T00:45:49;24.70;99.90
21559;DHT22;10940;48.890;8.240;2022-07-23T00:48:14;24.70;99.90
21559;DHT22;10940;48.890;8.240;2022-07-23T00:50:40;24.60;99.90
21559;DHT22;10940;48.890;8.240;2022-07-23T00:53:05;24.60;99.90
21559;DHT22;10940;48.890;8.240;2022-07-23T00:55:32;24.70;99.90
21559;DHT22;10940;48.890;8.240;2022-07-23T00:57:58;24.50;99.90
21559;DHT22;10940;48.890;8.240;2022-07-23T01:00:24;24.40;99.90
21559;DHT22;10940;48.890;8.240;2022-07-23T01:02:50;24.40;99.90
21559;DHT22;10940;48.890;8.240;2022-07-23T01:05:16;24.40;99.90
21559;DHT22;10940;48.890;8.240;2022-07-23T01:07:43;24.30;99.90
21559;DHT22;10940;48.890;8.240;2022-07-23T01:10:09;24.30;99.90
21559;DHT22;10940;48.890;8.240;2022-07-23T01:12:53;24.20;99.90
21559;DHT22;10940;48.890;8.240;2022-07-23T01:15:18;24.30;99.90
21559;DHT22;10940;48.890;8.240;2022-07-23T01:17:44;24.20;99.90
21559;DHT22;10940;48.890;8.240;2022-07-23T01:20:09;24.20;99.90
21559;DHT22;10940;48.890;8.240;2022-07-23T01:22:35;24.20;99.90
21559;DHT22;10940;48.890;8.240;2022-07-23T01:25:01;24.10;99.90
21559;DHT22;10940;48.890;8.240;2022-07-23T01:27:26;24.10;99.90
21559;DHT22;10940;48.890;8.240;2022-07-23T01:29:54;24.10;99.90
21559;DHT22;10940;48.890;8.240;2022-07-23T01:32:20;24.00;99.90
21559;DHT22;10940;48.890;8.240;2022-07-23T01:34:46;24.00;99.90
21559;DHT22;10940;48.890;8.240;2022-07-23T01:37:11;23.90;99.90
21559;DHT22;10940;48.890;8.240;2022-07-23T01:39:37;23.90;99.90
21559;DHT22;10940;48.890;8.240;2022-07-23T01:42:02;23.80;99.90
21559;DHT22;10940;48.890;8.240;2022-07-23T01:44:28;23.80;99.90
21559;DHT22;10940;48.890;8.240;2022-07-23T01:46:54;23.70;99.90
21559;DHT22;10940;48.890;8.240;2022-07-23T01:49:20;23.60;99.90
21559;DHT22;10940;48.890;8.240;2022-07-23T01:51:46;23.50;99.90
21559;DHT22;10940;48.890;8.240;2022-07-23T01:54:32;23.40;99.90
21559;DHT22;10940;48.890;8.240;2022-07-23T01:56:59;23.30;99.90
21559;DHT22;10940;48.890;8.240;2022-07-23T01:59:25;23.30;99.90
21559;DHT22;10940;48.890;8.240;2022-07-23T02:01:51;23.30;99.90
21559;DHT22;10940;48.890;8.240;2022-07-23T02:04:21;23.30;99.90
21559;DHT22;10940;48.890;8.240;2022-07-23T02:06:47;23.20;99.90
21559;DHT22;10940;48.890;8.240;2022-07-23T02:09:13;23.20;99.90
21559;DHT22;10940;48.890;8.240;2022-07-23T02:11:38;23.10;99.90
21559;DHT22;10940;48.890;8.240;2022-07-23T02:14:04;23.10;99.90
21559;DHT22;10940;48.890;8.240;2022-07-23T02:16:29;23.10;99.90
21559;DHT22;10940;48.890;8.240;2022-07-23T02:18:55;23.10;99.90
21559;DHT22;10940;48.890;8.240;2022-07-23T02:21:21;23.10;99.90
21559;DHT22;10940;48.890;8.240;2022-07-23T02:23:46;23.00;99.90
21559;DHT22;10940;48.890;8.240;2022-07-23T02:26:12;23.00;99.90
21559;DHT22;10940;48.890;8.240;2022-07-23T02:28:38;23.00;99.90
21559;DHT22;10940;48.890;8.240;2022-07-23T02:31:03;23.00;99.90
21559;DHT22;10940;48.890;8.240;2022-07-23T02:33:29;23.00;99.90
21559;DHT22;10940;48.890;8.240;2022-07-23T02:35:55;23.00;99.90
21559;DHT22;10940;48.890;8.240;2022-07-23T02:38:21;22.90;99.90
21559;DHT22;10940;48.890;8.240;2022-07-23T02:40:46;22.80;99.90
21559;DHT22;10940;48.890;8.240;2022-07-23T02:43:12;22.80;99.90
21559;DHT22;10940;48.890;8.240;2022-07-23T02:45:37;22.80;99.90
21559;DHT22;10940;48.890;8.240;2022-07-23T02:48:03;22.90;99.90
21559;DHT22;10940;48.890;8.240;2022-07-23T02:50:29;22.80;99.90
21559;DHT22;10940;48.890;8.240;2022-07-23T02:52:55;22.80;99.90
21559;DHT22;10940;48.890;8.240;2022-07-23T02:55:20;22.90;99.90
21559;DHT22;10940;48.890;8.240;2022-07-23T02:57:47;22.90;99.90
21559;DHT22;10940;48.890;8.240;2022-07-23T03:00:12;22.90;99.90
21559;DHT22;10940;48.890;8.240;2022-07-23T03:02:38;22.90;99.90
21559;DHT22;10940;48.890;8.240;2022-07-23T03:05:05;22.90;99.90
21559;DHT22;10940;48.890;8.240;2022-07-23T03:07:30;22.90;99.90
21559;DHT22;10940;48.890;8.240;2022-07-23T03:09:56;22.90;99.90
21559;DHT22;10940;48.890;8.240;2022-07-23T03:12:21;22.90;99.90
21559;DHT22;10940;48.890;8.240;2022-07-23T03:14:47;22.90;99.90
21559;DHT22;10940;48.890;8.240;2022-07-23T03:17:13;23.00;99.90
21559;DHT22;10940;48.890;8.240;2022-07-23T03:19:38;23.00;99.90
21559;DHT22;10940;48.890;8.240;2022-07-23T03:22:04;22.90;99.90
21559;DHT22;10940;48.890;8.240;2022-07-23T03:24:30;22.90;99.90
21559;DHT22;10940;48.890;8.240;2022-07-23T03:27:15;22.90;99.90
21559;DHT22;10940;48.890;8.240;2022-07-23T03:29:40;22.90;99.90
21559;DHT22;10940;48.890;8.240;2022-07-23T03:32:06;22.90;99.90
21559;DHT22;10940;48.890;8.240;2022-07-23T03:34:32;22.90;99.90
21559;DHT22;10940;48.890;8.240;2022-07-23T03:36:57;22.90;99.90
21559;DHT22;10940;48.890;8.240;2022-07-23T03:39:23;22.90;99.90
21559;DHT22;10940;48.890;8.240;2022-07-23T03:41:48;22.80;99.90
21559;DHT22;10940;48.890;8.240;2022-07-23T03:44:14;22.90;99.90
21559;DHT22;10940;48.890;8.240;2022-07-23T03:46:40;22.80;99.90
21559;DHT22;10940;48.890;8.240;2022-07-23T03:49:05;22.80;99.90
21559;DHT22;10940;48.890;8.240;2022-07-23T03:51:31;22.70;99.90
21559;DHT22;10940;48.890;8.240;2022-07-23T03:53:57;22.70;99.90
21559;DHT22;10940;48.890;8.240;2022-07-23T03:56:23;22.70;99.90
21559;DHT22;10940;48.890;8.240;2022-07-23T03:58:49;22.70;99.90
21559;DHT22;10940;48.890;8.240;2022-07-23T04:01:14;22.80;99.90
21559;DHT22;10940;48.890;8.240;2022-07-23T04:03:40;22.70;99.90
21559;DHT22;10940;48.890;8.240;2022-07-23T04:06:06;22.80;99.90
21559;DHT22;10940;48.890;8.240;2022-07-23T04:08:32;22.80;99.90
21559;DHT22;10940;48.890;8.240;2022-07-23T04:10:58;22.70;99.90
21559;DHT22;10940;48.890;8.240;2022-07-23T04:13:24;22.70;99.90
21559;DHT22;10940;48.890;8.240;2022-07-23T04:15:49;22.70;99.90
21559;DHT22;10940;48.890;8.240;2022-07-23T04:18:16;22.70;99.90
21559;DHT22;10940;48.890;8.240;2022-07-23T04:20:46;22.70;99.90
21559;DHT22;10940;48.890;8.240;2022-07-23T04:23:12;22.60;99.90
21559;DHT22;10940;48.890;8.240;2022-07-23T04:25:38;22.50;99.90
21559;DHT22;10940;48.890;8.240;2022-07-23T04:28:04;22.50;99.90
21559;DHT22;10940;48.890;8.240;2022-07-23T04:30:29;22.50;99.90
21559;DHT22;10940;48.890;8.240;2022-07-23T04:32:55;22.50;99.90
21559;DHT22;10940;48.890;8.240;2022-07-23T04:35:21;22.50;99.90
21559;DHT22;10940;48.890;8.240;2022-07-23T04:37:46;22.50;99.90
21559;DHT22;10940;48.890;8.240;2022-07-23T04:40:13;22.60;99.90
21559;DHT22;10940;48.890;8.240;2022-07-23T04:42:39;22.60;99.90
21559;DHT22;10940;48.890;8.240;2022-07-23T04:45:05;22.60;99.90
21559;DHT22;10940;48.890;8.240;2022-07-23T04:47:31;22.60;99.90
21559;DHT22;10940;48.890;8.240;2022-07-23T04:49:57;22.60;99.90
21559;DHT22;10940;48.890;8.240;2022-07-23T04:52:23;22.50;99.90
21559;DHT22;10940;48.890;8.240;2022-07-23T04:54:49;22.60;99.90
21559;DHT22;10940;48.890;8.240;2022-07-23T04:57:15;22.70;99.90
21559;DHT22;10940;48.890;8.240;2022-07-23T04:59:40;22.60;99.90
21559;DHT22;10940;48.890;8.240;2022-07-23T05:02:06;22.70;99.90
21559;DHT22;10940;48.890;8.240;2022-07-23T05:04:31;22.60;99.90
21559;DHT22;10940;48.890;8.240;2022-07-23T05:06:57;22.60;99.90
21559;DHT22;10940;48.890;8.240;2022-07-23T05:09:23;22.50;99.90
21559;DHT22;10940;48.890;8.240;2022-07-23T05:11:49;22.40;99.90
21559;DHT22;10940;48.890;8.240;2022-07-23T05:14:15;22.30;99.90
21559;DHT22;10940;48.890;8.240;2022-07-23T05:16:40;22.20;99.90
21559;DHT22;10940;48.890;8.240;2022-07-23T05:19:06;22.10;99.90
21559;DHT22;10940;48.890;8.240;2022-07-23T05:21:32;22.00;99.90
21559;DHT22;10940;48.890;8.240;2022-07-23T05:23:57;21.80;99.90
21559;DHT22;10940;48.890;8.240;2022-07-23T05:26:23;21.80;99.90
21559;DHT22;10940;48.890;8.240;2022-07-23T05:28:49;21.70;99.90
21559;DHT22;10940;48.890;8.240;2022-07-23T05:31:15;21.80;99.90
21559;DHT22;10940;48.890;8.240;2022-07-23T05:33:41;21.70;99.90
21559;DHT22;10940;48.890;8.240;2022-07-23T05:36:06;21.70;99.90
21559;DHT22;10940;48.890;8.240;2022-07-23T05:38:32;21.70;99.90
21559;DHT22;10940;48.890;8.240;2022-07-23T05:40:58;21.70;99.90
21559;DHT22;10940;48.890;8.240;2022-07-23T05:43:24;21.70;99.90
21559;DHT22;10940;48.890;8.240;2022-07-23T05:45:50;21.80;99.90
21559;DHT22;10940;48.890;8.240;2022-07-23T05:48:15;21.80;99.90
21559;DHT22;10940;48.890;8.240;2022-07-23T05:50:41;21.80;99.90
21559;DHT22;10940;48.890;8.240;2022-07-23T05:53:07;21.80;99.90
21559;DHT22;10940;48.890;8.240;2022-07-23T05:55:33;21.60;99.90
21559;DHT22;10940;48.890;8.240;2022-07-23T05:57:59;21.30;99.90
21559;DHT22;10940;48.890;8.240;2022-07-23T06:00:26;21.00;99.90
21559;DHT22;10940;48.890;8.240;2022-07-23T06:02:53;20.90;99.90
21559;DHT22;10940;48.890;8.240;2022-07-23T06:05:19;20.70;99.90
21559;DHT22;10940;48.890;8.240;2022-07-23T06:07:45;20.40;99.90
21559;DHT22;10940;48.890;8.240;2022-07-23T06:10:10;20.20;99.90
21559;DHT22;10940;48.890;8.240;2022-07-23T06:12:36;19.90;99.90
21559;DHT22;10940;48.890;8.240;2022-07-23T06:15:03;19.70;99.90
21559;DHT22;10940;48.890;8.240;2022-07-23T06:17:29;19.60;99.90
21559;DHT22;10940;48.890;8.240;2022-07-23T06:19:55;19.60;99.90
21559;DHT22;10940;48.890;8.240;2022-07-23T06:22:21;19.70;99.90
21559;DHT22;10940;48.890;8.240;2022-07-23T06:24:48;19.70;99.90
21559;DHT22;10940;48.890;8.240;2022-07-23T06:27:13;19.70;99.90
21559;DHT22;10940;48.890;8.240;2022-07-23T06:29:39;19.70;99.90
21559;DHT22;10940;48.890;8.240;2022-07-23T06:32:06;19.70;99.90
21559;DHT22;10940;48.890;8.240;2022-07-23T06:34:32;19.80;99.90
21559;DHT22;10940;48.890;8.240;2022-07-23T06:36:59;19.90;99.90
21559;DHT22;10940;48.890;8.240;2022-07-23T06:39:24;19.90;99.90
21559;DHT22;10940;48.890;8.240;2022-07-23T06:41:50;20.00;99.90
21559;DHT22;10940;48.890;8.240;2022-07-23T06:44:16;20.20;99.90
21559;DHT22;10940;48.890;8.240;2022-07-23T06:46:42;20.30;99.90
21559;DHT22;10940;48.890;8.240;2022-07-23T06:49:08;20.30;99.90
21559;DHT22;10940;48.890;8.240;2022-07-23T06:51:34;20.50;99.90
21559;DHT22;10940;48.890;8.240;2022-07-23T06:54:00;20.50;99.90
21559;DHT22;10940;48.890;8.240;2022-07-23T06:56:26;20.50;99.90
21559;DHT22;10940;48.890;8.240;2022-07-23T06:58:52;20.50;99.90
21559;DHT22;10940;48.890;8.240;2022-07-23T07:01:17;20.50;99.90
21559;DHT22;10940;48.890;8.240;2022-07-23T07:03:43;20.50;99.90
21559;DHT22;10940;48.890;8.240;2022-07-23T07:06:09;20.50;99.90
21559;DHT22;10940;48.890;8.240;2022-07-23T07:08:34;20.60;99.90
21559;DHT22;10940;48.890;8.240;2022-07-23T07:11:00;20.60;99.90
21559;DHT22;10940;48.890;8.240;2022-07-23T07:13:26;20.70;99.90
21559;DHT22;10940;48.890;8.240;2022-07-23T07:15:51;20.80;99.90
21559;DHT22;10940;48.890;8.240;2022-07-23T07:18:17;20.90;99.90
21559;DHT22;10940;48.890;8.240;2022-07-23T07:20:42;20.90;99.90
21559;DHT22;10940;48.890;8.240;2022-07-23T07:23:08;21.00;99.90
21559;DHT22;10940;48.890;8.240;2022-07-23T07:25:33;21.10;99.90
21559;DHT22;10940;48.890;8.240;2022-07-23T07:27:59;21.00;99.90
21559;DHT22;10940;48.890;8.240;2022-07-23T07:30:25;21.00;99.90
21559;DHT22;10940;48.890;8.240;2022-07-23T07:32:50;21.00;99.90
21559;DHT22;10940;48.890;8.240;2022-07-23T07:35:16;21.10;99.90
21559;DHT22;10940;48.890;8.240;2022-07-23T07:37:41;21.10;99.90
21559;DHT22;10940;48.890;8.240;2022-07-23T07:40:08;21.10;99.90
21559;DHT22;10940;48.890;8.240;2022-07-23T07:42:33;21.00;99.90
21559;DHT22;10940;48.890;8.240;2022-07-23T07:44:59;21.10;99.90
21559;DHT22;10940;48.890;8.240;2022-07-23T07:47:25;21.20;99.90
21559;DHT22;10940;48.890;8.240;2022-07-23T07:49:51;21.30;99.90
21559;DHT22;10940;48.890;8.240;2022-07-23T07:52:16;21.30;99.90
21559;DHT22;10940;48.890;8.240;2022-07-23T07:54:42;21.30;99.90
21559;DHT22;10940;48.890;8.240;2022-07-23T07:57:08;21.40;99.90
21559;DHT22;10940;48.890;8.240;2022-07-23T07:59:34;21.50;99.90
21559;DHT22;10940;48.890;8.240;2022-07-23T08:01:59;21.60;99.90
21559;DHT22;10940;48.890;8.240;2022-07-23T08:04:25;21.70;99.90
21559;DHT22;10940;48.890;8.240;2022-07-23T08:06:50;21.80;99.90
21559;DHT22;10940;48.890;8.240;2022-07-23T08:09:16;21.90;99.90
21559;DHT22;10940;48.890;8.240;2022-07-23T08:11:41;22.00;99.90
21559;DHT22;10940;48.890;8.240;2022-07-23T08:14:07;22.10;99.90
21559;DHT22;10940;48.890;8.240;2022-07-23T08:16:33;22.20;99.90
21559;DHT22;10940;48.890;8.240;2022-07-23T08:18:58;22.40;99.90
21559;DHT22;10940;48.890;8.240;2022-07-23T08:21:24;22.40;99.90
21559;DHT22;10940;48.890;8.240;2022-07-23T08:23:49;22.60;99.90
21559;DHT22;10940;48.890;8.240;2022-07-23T08:26:15;22.70;99.90
21559;DHT22;10940;48.890;8.240;2022-07-23T08:28:40;22.80;99.90
21559;DHT22;10940;48.890;8.240;2022-07-23T08:31:06;22.90;99.90
21559;DHT22;10940;48.890;8.240;2022-07-23T08:33:32;22.90;99.90
21559;DHT22;10940;48.890;8.240;2022-07-23T08:35:58;23.10;99.90
21559;DHT22;10940;48.890;8.240;2022-07-23T08:38:24;23.20;99.90
21559;DHT22;10940;48.890;8.240;2022-07-23T08:40:55;23.30;99.90
21559;DHT22;10940;48.890;8.240;2022-07-23T08:43:24;23.30;99.90
21559;DHT22;10940;48.890;8.240;2022-07-23T08:45:52;23.40;99.90
21559;DHT22;10940;48.890;8.240;2022-07-23T08:48:27;23.50;99.90
21559;DHT22;10940;48.890;8.240;2022-07-23T08:50:58;23.70;99.90
21559;DHT22;10940;48.890;8.240;2022-07-23T08:53:25;24.00;99.90
21559;DHT22;10940;48.890;8.240;2022-07-23T08:55:53;24.20;99.90
21559;DHT22;10940;48.890;8.240;2022-07-23T08:58:19;24.50;99.90
21559;DHT22;10940;48.890;8.240;2022-07-23T09:00:46;24.60;99.90
21559;DHT22;10940;48.890;8.240;2022-07-23T09:03:26;24.70;99.90
21559;DHT22;10940;48.890;8.240;2022-07-23T09:05:53;24.80;99.90
21559;DHT22;10940;48.890;8.240;2022-07-23T09:08:26;24.90;99.90
21559;DHT22;10940;48.890;8.240;2022-07-23T09:11:00;25.00;99.90
21559;DHT22;10940;48.890;8.240;2022-07-23T09:18:44;25.20;99.90
21559;DHT22;10940;48.890;8.240;2022-07-23T09:21:12;25.30;99.90
21559;DHT22;10940;48.890;8.240;2022-07-23T09:23:59;25.30;99.90
21559;DHT22;10940;48.890;8.240;2022-07-23T09:31:20;25.40;99.90
21559;DHT22;10940;48.890;8.240;2022-07-23T09:33:46;25.60;99.90
21559;DHT22;10940;48.890;8.240;2022-07-23T09:36:11;25.70;99.90
21559;DHT22;10940;48.890;8.240;2022-07-23T09:38:49;25.70;99.90
21559;DHT22;10940;48.890;8.240;2022-07-23T09:41:15;25.70;99.90
21559;DHT22;10940;48.890;8.240;2022-07-23T09:43:41;25.80;99.90
21559;DHT22;10940;48.890;8.240;2022-07-23T09:46:26;25.90;99.90
21559;DHT22;10940;48.890;8.240;2022-07-23T09:48:54;26.10;99.90
21559;DHT22;10940;48.890;8.240;2022-07-23T09:51:22;26.20;99.90
21559;DHT22;10940;48.890;8.240;2022-07-23T09:54:03;26.30;99.90
21559;DHT22;10940;48.890;8.240;2022-07-23T09:56:29;26.40;99.90
21559;DHT22;10940;48.890;8.240;2022-07-23T09:58:55;26.50;99.90
21559;DHT22;10940;48.890;8.240;2022-07-23T10:01:32;26.60;99.90
21559;DHT22;10940;48.890;8.240;2022-07-23T10:03:58;26.70;99.90
21559;DHT22;10940;48.890;8.240;2022-07-23T10:06:24;26.70;99.90
21559;DHT22;10940;48.890;8.240;2022-07-23T10:08:52;26.80;99.90
21559;DHT22;10940;48.890;8.240;2022-07-23T10:11:20;26.80;99.90
21559;DHT22;10940;48.890;8.240;2022-07-23T10:13:46;26.90;99.90
21559;DHT22;10940;48.890;8.240;2022-07-23T10:16:16;27.00;99.90
21559;DHT22;10940;48.890;8.240;2022-07-23T10:18:42;27.20;99.90
21559;DHT22;10940;48.890;8.240;2022-07-23T10:21:08;27.40;99.90
21559;DHT22;10940;48.890;8.240;2022-07-23T10:23:45;27.50;99.90
21559;DHT22;10940;48.890;8.240;2022-07-23T10:26:45;27.60;99.90
21559;DHT22;10940;48.890;8.240;2022-07-23T10:29:34;27.80;99.90
21559;DHT22;10940;48.890;8.240;2022-07-23T10:32:07;27.80;99.90
21559;DHT22;10940;48.890;8.240;2022-07-23T10:34:58;28.00;99.90
21559;DHT22;10940;48.890;8.240;2022-07-23T10:37:34;28.00;99.90
21559;DHT22;10940;48.890;8.240;2022-07-23T10:40:22;28.00;99.90
21559;DHT22;10940;48.890;8.240;2022-07-23T10:42:52;28.00;99.90
21559;DHT22;10940;48.890;8.240;2022-07-23T10:47:55;28.10;99.90
21559;DHT22;10940;48.890;8.240;2022-07-23T10:50:28;28.00;99.90
21559;DHT22;10940;48.890;8.240;2022-07-23T10:58:00;28.30;99.90
21559;DHT22;10940;48.890;8.240;2022-07-23T11:00:27;28.30;99.90
21559;DHT22;10940;48.890;8.240;2022-07-23T11:02:58;28.30;99.90
21559;DHT22;10940;48.890;8.240;2022-07-23T11:05:38;28.30;99.90
21559;DHT22;10940;48.890;8.240;2022-07-23T11:24:18;29.20;99.90
21559;DHT22;10940;48.890;8.240;2022-07-23T11:34:41;30.10;99.90
21559;DHT22;10940;48.890;8.240;2022-07-23T11:37:12;30.40;99.90
21559;DHT22;10940;48.890;8.240;2022-07-23T11:39:38;30.70;99.90
21559;DHT22;10940;48.890;8.240;2022-07-23T11:42:06;31.10;99.90
21559;DHT22;10940;48.890;8.240;2022-07-23T11:44:34;31.50;99.50
21559;DHT22;10940;48.890;8.240;2022-07-23T11:47:02;32.00;98.00
21559;DHT22;10940;48.890;8.240;2022-07-23T11:49:28;32.20;97.40
21559;DHT22;10940;48.890;8.240;2022-07-23T11:52:10;32.50;97.40
21559;DHT22;10940;48.890;8.240;2022-07-23T11:57:34;33.30;94.00
21559;DHT22;10940;48.890;8.240;2022-07-23T12:02:32;32.90;94.00
21559;DHT22;10940;48.890;8.240;2022-07-23T12:04:58;32.60;95.90
21559;DHT22;10940;48.890;8.240;2022-07-23T12:07:27;32.50;95.00
21559;DHT22;10940;48.890;8.240;2022-07-23T12:09:54;32.30;93.90
21559;DHT22;10940;48.890;8.240;2022-07-23T12:12:21;32.10;97.40
21559;DHT22;10940;48.890;8.240;2022-07-23T12:14:55;31.90;97.50
21559;DHT22;10940;48.890;8.240;2022-07-23T12:17:28;31.70;96.50
21559;DHT22;10940;48.890;8.240;2022-07-23T12:19:54;31.60;97.80
21559;DHT22;10940;48.890;8.240;2022-07-23T12:22:21;31.80;97.20
21559;DHT22;10940;48.890;8.240;2022-07-23T12:24:58;31.80;94.70
21559;DHT22;10940;48.890;8.240;2022-07-23T12:27:24;31.80;97.40
21559;DHT22;10940;48.890;8.240;2022-07-23T12:29:50;31.70;97.40
21559;DHT22;10940;48.890;8.240;2022-07-23T12:32:25;31.90;96.60
21559;DHT22;10940;48.890;8.240;2022-07-23T12:35:05;32.10;95.60
21559;DHT22;10940;48.890;8.240;2022-07-23T12:37:34;32.00;94.10
21559;DHT22;10940;48.890;8.240;2022-07-23T12:43:00;31.90;95.30
21559;DHT22;10940;48.890;8.240;2022-07-23T12:45:28;32.00;93.80
21559;DHT22;10940;48.890;8.240;2022-07-23T12:47:57;32.10;94.00
21559;DHT22;10940;48.890;8.240;2022-07-23T12:50:58;32.10;93.90
21559;DHT22;10940;48.890;8.240;2022-07-23T12:53:27;32.20;94.30
21559;DHT22;10940;48.890;8.240;2022-07-23T12:56:04;32.20;93.60
21559;DHT22;10940;48.890;8.240;2022-07-23T13:01:09;32.40;93.70
21559;DHT22;10940;48.890;8.240;2022-07-23T13:03:40;32.50;94.10
21559;DHT22;10940;48.890;8.240;2022-07-23T13:06:08;32.50;92.40
21559;DHT22;10940;48.890;8.240;2022-07-23T13:08:36;32.10;91.80
21559;DHT22;10940;48.890;8.240;2022-07-23T13:11:03;32.00;93.60
21559;DHT22;10940;48.890;8.240;2022-07-23T13:13:32;32.10;93.60
21559;DHT22;10940;48.890;8.240;2022-07-23T13:15:59;32.10;91.80
21559;DHT22;10940;48.890;8.240;2022-07-23T13:18:25;32.10;91.90
21559;DHT22;10940;48.890;8.240;2022-07-23T13:20:51;32.10;91.80
21559;DHT22;10940;48.890;8.240;2022-07-23T13:23:18;31.90;93.90
21559;DHT22;10940;48.890;8.240;2022-07-23T13:25:44;31.70;91.70
21559;DHT22;10940;48.890;8.240;2022-07-23T13:28:09;31.60;92.20
21559;DHT22;10940;48.890;8.240;2022-07-23T13:30:35;31.60;92.40
21559;DHT22;10940;48.890;8.240;2022-07-23T13:33:03;31.50;92.90
21559;DHT22;10940;48.890;8.240;2022-07-23T13:35:29;31.50;93.40
21559;DHT22;10940;48.890;8.240;2022-07-23T13:37:54;31.70;92.70
21559;DHT22;10940;48.890;8.240;2022-07-23T13:40:20;31.80;91.60
21559;DHT22;10940;48.890;8.240;2022-07-23T13:42:46;31.90;92.40
21559;DHT22;10940;48.890;8.240;2022-07-23T13:45:14;31.90;92.40
21559;DHT22;10940;48.890;8.240;2022-07-23T13:47:40;32.10;92.00
21559;DHT22;10940;48.890;8.240;2022-07-23T13:50:06;32.20;92.00
21559;DHT22;10940;48.890;8.240;2022-07-23T13:52:32;32.40;91.00
21559;DHT22;10940;48.890;8.240;2022-07-23T13:55:05;32.40;91.00
21559;DHT22;10940;48.890;8.240;2022-07-23T13:57:31;32.30;91.40
21559;DHT22;10940;48.890;8.240;2022-07-23T13:59:57;32.20;91.40
21559;DHT22;10940;48.890;8.240;2022-07-23T14:02:23;32.10;91.70
21559;DHT22;10940;48.890;8.240;2022-07-23T14:04:49;32.10;91.90
21559;DHT22;10940;48.890;8.240;2022-07-23T14:07:15;32.20;91.40
21559;DHT22;10940;48.890;8.240;2022-07-23T14:09:41;32.30;91.00
21559;DHT22;10940;48.890;8.240;2022-07-23T14:12:07;32.10;91.20
21559;DHT22;10940;48.890;8.240;2022-07-23T14:14:32;32.10;91.30
21559;DHT22;10940;48.890;8.240;2022-07-23T14:16:58;32.20;91.30
21559;DHT22;10940;48.890;8.240;2022-07-23T14:19:24;32.30;90.20
21559;DHT22;10940;48.890;8.240;2022-07-23T14:21:49;32.40;91.20
21559;DHT22;10940;48.890;8.240;2022-07-23T14:24:15;32.50;91.00
21559;DHT22;10940;48.890;8.240;2022-07-23T14:26:41;32.80;90.70
21559;DHT22;10940;48.890;8.240;2022-07-23T14:29:07;32.90;91.00
21559;DHT22;10940;48.890;8.240;2022-07-23T14:31:33;33.00;89.50
21559;DHT22;10940;48.890;8.240;2022-07-23T14:33:59;33.10;89.60
21559;DHT22;10940;48.890;8.240;2022-07-23T14:36:27;33.20;89.40
21559;DHT22;10940;48.890;8.240;2022-07-23T14:38:53;33.10;87.50
21559;DHT22;10940;48.890;8.240;2022-07-23T14:41:19;33.00;88.30
21559;DHT22;10940;48.890;8.240;2022-07-23T14:43:45;32.80;88.70
21559;DHT22;10940;48.890;8.240;2022-07-23T14:46:11;32.50;88.00
21559;DHT22;10940;48.890;8.240;2022-07-23T14:48:38;32.30;88.60
21559;DHT22;10940;48.890;8.240;2022-07-23T14:51:04;32.10;88.50
21559;DHT22;10940;48.890;8.240;2022-07-23T14:53:30;31.70;88.20
21559;DHT22;10940;48.890;8.240;2022-07-23T14:55:57;31.40;89.30
21559;DHT22;10940;48.890;8.240;2022-07-23T14:58:23;31.20;90.00
21559;DHT22;10940;48.890;8.240;2022-07-23T15:00:50;31.10;90.30
21559;DHT22;10940;48.890;8.240;2022-07-23T15:03:16;31.00;90.50
21559;DHT22;10940;48.890;8.240;2022-07-23T15:05:42;30.90;90.90
21559;DHT22;10940;48.890;8.240;2022-07-23T15:08:08;30.90;91.20
21559;DHT22;10940;48.890;8.240;2022-07-23T15:10:33;30.90;91.30
21559;DHT22;10940;48.890;8.240;2022-07-23T15:13:00;30.90;91.00
21559;DHT22;10940;48.890;8.240;2022-07-23T15:15:35;30.80;90.70
21559;DHT22;10940;48.890;8.240;2022-07-23T15:18:01;30.80;91.50
21559;DHT22;10940;48.890;8.240;2022-07-23T15:20:26;30.70;91.00
21559;DHT22;10940;48.890;8.240;2022-07-23T15:22:52;30.60;91.60
21559;DHT22;10940;48.890;8.240;2022-07-23T15:25:18;30.50;91.60
21559;DHT22;10940;48.890;8.240;2022-07-23T15:27:44;30.40;91.40
21559;DHT22;10940;48.890;8.240;2022-07-23T15:30:10;30.40;90.90
21559;DHT22;10940;48.890;8.240;2022-07-23T15:32:35;30.30;90.90
21559;DHT22;10940;48.890;8.240;2022-07-23T15:35:01;30.20;91.10
21559;DHT22;10940;48.890;8.240;2022-07-23T15:37:31;30.10;90.70
21559;DHT22;10940;48.890;8.240;2022-07-23T15:39:57;30.10;90.80
21559;DHT22;10940;48.890;8.240;2022-07-23T15:42:22;30.10;91.50
21559;DHT22;10940;48.890;8.240;2022-07-23T15:44:48;30.00;92.00
21559;DHT22;10940;48.890;8.240;2022-07-23T15:47:16;29.90;92.70
21559;DHT22;10940;48.890;8.240;2022-07-23T15:49:42;29.90;93.50
21559;DHT22;10940;48.890;8.240;2022-07-23T15:52:08;29.90;93.60
21559;DHT22;10940;48.890;8.240;2022-07-23T15:54:38;29.90;93.10
21559;DHT22;10940;48.890;8.240;2022-07-23T15:57:04;30.00;93.30
21559;DHT22;10940;48.890;8.240;2022-07-23T15:59:31;30.20;93.50
21559;DHT22;10940;48.890;8.240;2022-07-23T16:01:57;30.40;92.50
21559;DHT22;10940;48.890;8.240;2022-07-23T16:04:25;30.40;92.60
21559;DHT22;10940;48.890;8.240;2022-07-23T16:06:51;30.40;92.60
21559;DHT22;10940;48.890;8.240;2022-07-23T16:09:16;30.30;95.00
21559;DHT22;10940;48.890;8.240;2022-07-23T16:11:42;30.20;95.60
21559;DHT22;10940;48.890;8.240;2022-07-23T16:14:08;30.10;94.60
21559;DHT22;10940;48.890;8.240;2022-07-23T16:16:34;30.10;95.80
21559;DHT22;10940;48.890;8.240;2022-07-23T16:19:00;30.10;95.40
21559;DHT22;10940;48.890;8.240;2022-07-23T16:21:27;30.10;94.60
21559;DHT22;10940;48.890;8.240;2022-07-23T16:23:53;30.10;95.00